Hauptseite
METAR-TAF:

METAR-TAF

Flughäfen :

Lugano, Schweiz

Flughafen Lugano-Agno

Breite: 46-00N, Länge: 008-58E, Höhe: 273 m

Beobachtung

Neuester Wetterbericht von vor 28 Minuten, um 23:20 UTC
Wind 1 kt aus unterschiedlichen Richtungen
Temperatur 0°C
Luftfeuchtigkeit 93%
Luftdruck 1011 hPa
Sichtweite 10 km oder mehr
keine Wolken unter 1500 m und keine Kumulonimbus oder Gewitterwolken

METAR: LSZA 182320Z AUTO VRB01KT CAVOK 00/M01 Q1011

Zeit: 00:48 (23:48 UTC)

Prognose

Neuester Wetterbericht von vor 9 Stunden und 23 Minuten, um 14:25 UTC
Gültige Prognose vom 18 um 15 UTC bis 18 um 24 UTC
Wind 3 kt aus unterschiedlichen Richtungen
Sichtweite 10 km oder mehr
keine Wolken unter 1500 m und keine Kumulonimbus oder Gewitterwolken
Zeitweise
vom 18 um 15 UTC bis 18 um 24 UTC
Sichtweite 10 km oder mehr
Aufgelockert bewölkt in der Höhe von 8000 ft

TAF: LSZA 181425Z 1815/1824 VRB03KT CAVOK TEMPO 1815/1824 9999 SCT080

Wetterbeobachtungen und Prognosen von mehr als 4000 Flughäfen (METAR und TAF Bericht).

Die verfügbaren Stationen werden durch gelbe und rote Markierungen auf der Karte dargestellt.

Führen Sie die Maus auf sie, um den Namen der Station zu sehen.

Darauf klicken, um die Beobachtung von Wetterbeobachtungen und Prognosen zu sehen.

Um die Karte zu ändern : klicken Sie auf den grünen Tasten mit einem schwarzen Kreuz Zum Vergrößern, auf den grünen Button mit einem Gedankenstrich zu verkleinern, oder auf die grünen Pfeile für benachbarte Karten.


METAR-TAF: